Share

Kobuk Valley National Park, AK

Noatak (PAWN) Hoogte 85 ft | 67.57 °N, 162.98 °W | Change Station

Current weather conditions updated 8 minutes ago

Partly Cloudy
Gedeeltelijk bewolkt
27 °F
Voelt als 18 °F
N
9
Wind Variabel Wind van NNO
Gusts mijl/u
Zonsopkomst 6:34 AM
Zonsondergang 10:48 PM
Maan Afnemende maan

Er wordt verwacht dat het vandaag warmer is dan gisteren.

Druk 29.75 inches
Zicht 10.0 mijlen
Wolken
Gevoelstemperatuur 18 °F
Dauwpunt 16 °F
Vochtigheid 64%
Neerslag 0.00 inches
Dikte sneeuw Niet beschikbaar.
UV Niet beschikbaar.
Pollen Niet beschikbaar.
Luchtkwaliteit Niet beschikbaar.
Flu Activity Sporadic
METAR PAWN 191856Z AUTO 03008KT 10SM M03/M09 A2975 RMK AO1

More Conditions Fewer Conditions

Druk 29.75 inches
Zicht 10.0 mijlen
Wolken
Gevoelstemperatuur 18 °F
Dauwpunt 16 °F
Vochtigheid 64%
Neerslag 0.00 inches
Dikte sneeuw Niet beschikbaar.
UV Niet beschikbaar.
Pollen Niet beschikbaar.
Luchtkwaliteit Niet beschikbaar.
Flu Activity Sporadic
METAR PAWN 191856Z AUTO 03008KT 10SM M03/M09 A2975 RMK AO1

More Conditions Fewer Conditions

10-Day Weather Forecast

Almanac

Astronomie

Apr. 19, 2014 Opkomst Ondergang
Werkelijke tijd 6:34 AM AKDT 10:48 PM AKDT
Burgerlijke schemering 5:22 AM AKDT 12:02 AM AKDT
Nautische schemering 3:12 AM AKDT 2:07 AM AKDT
Astronomische schemering Sun does not rise Sun does not rise
Maan 4:05 AM AKDT 8:41 AM AKDT
Golflengte van het zichtbare licht 18h 40m
Daglengte
16h 14m
Tomorrow will be 8m 12s longer.
Afnemende maan, 77% of the Moon is Illuminated
Vandaag
Afnemende maan
apr 22
Laatste kwartier
apr 29
Nieuw
mei 6
Eerste kwartier
mei 14
Volle maan

Extremen vandaag

State Highs State Lows

Community

  • Piriapolis
    Piriapolis
  • A Glorious Morning
    A Glorious Morning
  • Tender Rays Of Hope
    Tender Rays Of Hope
  • Bleeding Hearts
    Bleeding Hearts
  • Sunset Silhouettes
    Sunset Silhouettes

WunderPhotos

Upload Photos

1,702,845 foto’s ge-upload!

WunderBlogs® & News

Nearby

Luchtkwaliteit

Not available.

Dikte sneeuw

Station Depth Geometrische hoogte
Pargon Creek 2 in 300 ft
Rocky Point 5 in 500 ft
Gobblers Knob 8 in 2030 ft
Coldfoot 23 in 1040 ft
Atigun Pass 37 in 4800 ft

Watertemperatuur langs de kust

Plaats Temperatuur
Geen meldingen van stations

Aardbevingen

Stad Distance Mag. Time & Date
No recent earthquake activity has been reported nearby.
Minimum magnitude displayed is 2.5.

Nabije weerstations

Geen persoonlijke weerstations in dit gebied.

What do you think?

We're not finished. Please let us know what you like, what you don't like, and what you are still missing.